sensor_id;sensor_type;location;lat;lon;timestamp;temperature;humidity
36372;DHT22;22398;51.346;12.372;2024-03-22T00:03:32;7.10;99.90
36372;DHT22;22398;51.346;12.372;2024-03-22T00:08:36;7.00;99.90
36372;DHT22;22398;51.346;12.372;2024-03-22T00:13:38;7.00;99.90
36372;DHT22;22398;51.346;12.372;2024-03-22T00:18:40;6.80;99.90
36372;DHT22;22398;51.346;12.372;2024-03-22T00:23:45;6.80;99.90
36372;DHT22;22398;51.346;12.372;2024-03-22T00:28:47;6.70;99.90
36372;DHT22;22398;51.346;12.372;2024-03-22T00:33:50;6.70;99.90
36372;DHT22;22398;51.346;12.372;2024-03-22T00:38:53;6.80;99.90
36372;DHT22;22398;51.346;12.372;2024-03-22T00:43:55;6.80;99.90
36372;DHT22;22398;51.346;12.372;2024-03-22T00:48:57;6.80;99.90
36372;DHT22;22398;51.346;12.372;2024-03-22T00:54:01;6.80;99.90
36372;DHT22;22398;51.346;12.372;2024-03-22T00:59:04;6.80;99.90
36372;DHT22;22398;51.346;12.372;2024-03-22T01:04:06;6.80;99.90
36372;DHT22;22398;51.346;12.372;2024-03-22T01:09:11;6.80;99.90
36372;DHT22;22398;51.346;12.372;2024-03-22T01:14:13;6.80;99.90
36372;DHT22;22398;51.346;12.372;2024-03-22T01:19:15;6.80;99.90
36372;DHT22;22398;51.346;12.372;2024-03-22T01:24:19;6.80;99.90
36372;DHT22;22398;51.346;12.372;2024-03-22T01:29:21;6.80;99.90
36372;DHT22;22398;51.346;12.372;2024-03-22T01:34:23;6.90;99.90
36372;DHT22;22398;51.346;12.372;2024-03-22T01:39:27;6.90;99.90
36372;DHT22;22398;51.346;12.372;2024-03-22T01:44:30;6.90;99.90
36372;DHT22;22398;51.346;12.372;2024-03-22T01:49:33;7.00;99.90
36372;DHT22;22398;51.346;12.372;2024-03-22T01:54:37;7.00;99.90
36372;DHT22;22398;51.346;12.372;2024-03-22T01:59:40;7.00;99.90
36372;DHT22;22398;51.346;12.372;2024-03-22T02:04:43;7.10;99.90
36372;DHT22;22398;51.346;12.372;2024-03-22T02:09:46;7.10;99.90
36372;DHT22;22398;51.346;12.372;2024-03-22T02:14:48;7.20;99.90
36372;DHT22;22398;51.346;12.372;2024-03-22T02:19:52;7.20;99.90
36372;DHT22;22398;51.346;12.372;2024-03-22T02:24:55;7.30;99.90
36372;DHT22;22398;51.346;12.372;2024-03-22T02:29:57;7.40;99.90
36372;DHT22;22398;51.346;12.372;2024-03-22T02:35:00;7.40;99.90
36372;DHT22;22398;51.346;12.372;2024-03-22T02:40:04;7.50;99.90
36372;DHT22;22398;51.346;12.372;2024-03-22T02:45:07;7.60;99.90
36372;DHT22;22398;51.346;12.372;2024-03-22T02:50:10;7.70;99.90
36372;DHT22;22398;51.346;12.372;2024-03-22T02:55:14;7.70;99.90
36372;DHT22;22398;51.346;12.372;2024-03-22T03:00:17;7.80;99.90
36372;DHT22;22398;51.346;12.372;2024-03-22T03:05:20;7.80;99.90
36372;DHT22;22398;51.346;12.372;2024-03-22T03:10:25;7.80;99.90
36372;DHT22;22398;51.346;12.372;2024-03-22T03:15:28;7.80;99.90
36372;DHT22;22398;51.346;12.372;2024-03-22T03:20:31;7.80;99.90
36372;DHT22;22398;51.346;12.372;2024-03-22T03:25:35;7.80;99.90
36372;DHT22;22398;51.346;12.372;2024-03-22T03:30:37;7.80;99.90
36372;DHT22;22398;51.346;12.372;2024-03-22T03:35:39;7.80;99.90
36372;DHT22;22398;51.346;12.372;2024-03-22T03:40:43;7.80;99.90
36372;DHT22;22398;51.346;12.372;2024-03-22T03:45:46;7.70;99.90
36372;DHT22;22398;51.346;12.372;2024-03-22T03:50:52;7.90;99.90
36372;DHT22;22398;51.346;12.372;2024-03-22T03:55:57;7.80;99.90
36372;DHT22;22398;51.346;12.372;2024-03-22T04:01:05;7.90;99.90
36372;DHT22;22398;51.346;12.372;2024-03-22T04:06:08;7.80;99.90
36372;DHT22;22398;51.346;12.372;2024-03-22T04:11:11;7.90;99.90
36372;DHT22;22398;51.346;12.372;2024-03-22T04:16:14;7.90;99.90
36372;DHT22;22398;51.346;12.372;2024-03-22T04:21:17;7.90;99.90
36372;DHT22;22398;51.346;12.372;2024-03-22T04:26:21;7.80;99.90
36372;DHT22;22398;51.346;12.372;2024-03-22T04:36:27;7.90;99.90
36372;DHT22;22398;51.346;12.372;2024-03-22T04:41:31;7.90;99.90
36372;DHT22;22398;51.346;12.372;2024-03-22T04:46:33;7.90;99.90
36372;DHT22;22398;51.346;12.372;2024-03-22T04:51:36;7.80;99.90
36372;DHT22;22398;51.346;12.372;2024-03-22T05:01:44;7.90;99.90
36372;DHT22;22398;51.346;12.372;2024-03-22T05:06:47;7.90;99.90
36372;DHT22;22398;51.346;12.372;2024-03-22T05:11:50;7.90;99.90
36372;DHT22;22398;51.346;12.372;2024-03-22T05:16:53;7.90;99.90
36372;DHT22;22398;51.346;12.372;2024-03-22T05:21:55;8.00;99.90
36372;DHT22;22398;51.346;12.372;2024-03-22T05:26:59;8.00;99.90
36372;DHT22;22398;51.346;12.372;2024-03-22T05:32:02;8.10;99.90
36372;DHT22;22398;51.346;12.372;2024-03-22T05:37:05;8.10;99.90
36372;DHT22;22398;51.346;12.372;2024-03-22T05:42:09;8.30;99.90
36372;DHT22;22398;51.346;12.372;2024-03-22T05:47:11;8.30;99.90
36372;DHT22;22398;51.346;12.372;2024-03-22T05:52:14;8.50;99.90
36372;DHT22;22398;51.346;12.372;2024-03-22T05:57:18;8.60;99.90
36372;DHT22;22398;51.346;12.372;2024-03-22T06:02:20;8.70;99.90
36372;DHT22;22398;51.346;12.372;2024-03-22T06:07:23;8.80;99.90
36372;DHT22;22398;51.346;12.372;2024-03-22T06:12:26;8.90;99.90
36372;DHT22;22398;51.346;12.372;2024-03-22T06:17:29;9.00;99.90
36372;DHT22;22398;51.346;12.372;2024-03-22T06:22:31;9.20;99.90
36372;DHT22;22398;51.346;12.372;2024-03-22T06:27:35;9.30;99.90
36372;DHT22;22398;51.346;12.372;2024-03-22T06:32:37;9.70;99.60
36372;DHT22;22398;51.346;12.372;2024-03-22T06:37:40;9.90;99.50
36372;DHT22;22398;51.346;12.372;2024-03-22T06:42:43;10.20;98.30
36372;DHT22;22398;51.346;12.372;2024-03-22T06:47:46;10.30;98.20
36372;DHT22;22398;51.346;12.372;2024-03-22T06:52:48;10.50;97.10
36372;DHT22;22398;51.346;12.372;2024-03-22T06:57:52;10.60;96.90
36372;DHT22;22398;51.346;12.372;2024-03-22T07:02:55;10.70;96.30
36372;DHT22;22398;51.346;12.372;2024-03-22T07:07:58;11.00;95.70
36372;DHT22;22398;51.346;12.372;2024-03-22T07:13:02;11.10;95.20
36372;DHT22;22398;51.346;12.372;2024-03-22T07:18:04;11.20;94.50
36372;DHT22;22398;51.346;12.372;2024-03-22T07:23:07;11.20;94.10
36372;DHT22;22398;51.346;12.372;2024-03-22T07:28:11;11.30;93.60
36372;DHT22;22398;51.346;12.372;2024-03-22T07:33:13;11.40;93.20
36372;DHT22;22398;51.346;12.372;2024-03-22T07:38:18;11.50;92.90
36372;DHT22;22398;51.346;12.372;2024-03-22T07:43:22;11.60;92.70
36372;DHT22;22398;51.346;12.372;2024-03-22T07:48:25;11.80;92.20
36372;DHT22;22398;51.346;12.372;2024-03-22T07:53:27;12.00;91.80
36372;DHT22;22398;51.346;12.372;2024-03-22T07:58:31;12.30;91.50
36372;DHT22;22398;51.346;12.372;2024-03-22T08:03:34;12.60;91.10
36372;DHT22;22398;51.346;12.372;2024-03-22T08:08:36;12.90;90.80
36372;DHT22;22398;51.346;12.372;2024-03-22T08:13:40;13.10;90.30
36372;DHT22;22398;51.346;12.372;2024-03-22T08:18:42;13.20;89.70
36372;DHT22;22398;51.346;12.372;2024-03-22T08:23:45;13.30;89.00
36372;DHT22;22398;51.346;12.372;2024-03-22T08:28:49;13.40;88.70
36372;DHT22;22398;51.346;12.372;2024-03-22T08:33:52;13.40;87.30
36372;DHT22;22398;51.346;12.372;2024-03-22T08:38:54;13.40;86.90
36372;DHT22;22398;51.346;12.372;2024-03-22T08:43:58;13.60;86.40
36372;DHT22;22398;51.346;12.372;2024-03-22T08:49:01;13.80;86.00
36372;DHT22;22398;51.346;12.372;2024-03-22T08:54:04;14.30;85.20
36372;DHT22;22398;51.346;12.372;2024-03-22T08:59:07;14.60;84.20
36372;DHT22;22398;51.346;12.372;2024-03-22T09:04:11;14.70;83.10
36372;DHT22;22398;51.346;12.372;2024-03-22T09:09:14;14.60;82.40
36372;DHT22;22398;51.346;12.372;2024-03-22T09:14:17;14.80;81.80
36372;DHT22;22398;51.346;12.372;2024-03-22T09:19:20;15.00;81.40
36372;DHT22;22398;51.346;12.372;2024-03-22T09:24:22;15.30;81.20
36372;DHT22;22398;51.346;12.372;2024-03-22T09:29:27;15.80;79.80
36372;DHT22;22398;51.346;12.372;2024-03-22T09:34:29;16.00;78.70
36372;DHT22;22398;51.346;12.372;2024-03-22T09:39:32;16.10;77.60
36372;DHT22;22398;51.346;12.372;2024-03-22T09:44:37;16.30;77.30
36372;DHT22;22398;51.346;12.372;2024-03-22T09:49:41;16.30;76.10
36372;DHT22;22398;51.346;12.372;2024-03-22T09:54:47;16.30;75.40
36372;DHT22;22398;51.346;12.372;2024-03-22T09:59:54;16.30;75.00
36372;DHT22;22398;51.346;12.372;2024-03-22T10:04:57;16.20;74.50
36372;DHT22;22398;51.346;12.372;2024-03-22T10:09:59;16.20;74.50
36372;DHT22;22398;51.346;12.372;2024-03-22T10:15:05;16.30;74.30
36372;DHT22;22398;51.346;12.372;2024-03-22T10:20:13;16.60;73.70
36372;DHT22;22398;51.346;12.372;2024-03-22T10:25:15;16.60;73.30
36372;DHT22;22398;51.346;12.372;2024-03-22T10:30:19;16.70;72.90
36372;DHT22;22398;51.346;12.372;2024-03-22T10:35:22;16.70;72.30
36372;DHT22;22398;51.346;12.372;2024-03-22T10:40:25;16.80;72.00
36372;DHT22;22398;51.346;12.372;2024-03-22T10:45:31;16.70;72.00
36372;DHT22;22398;51.346;12.372;2024-03-22T10:50:35;16.70;71.90
36372;DHT22;22398;51.346;12.372;2024-03-22T10:55:42;17.00;71.80
36372;DHT22;22398;51.346;12.372;2024-03-22T11:00:46;17.30;71.20
36372;DHT22;22398;51.346;12.372;2024-03-22T11:05:50;17.50;70.60
36372;DHT22;22398;51.346;12.372;2024-03-22T11:10:56;17.30;69.30
36372;DHT22;22398;51.346;12.372;2024-03-22T11:16:00;17.30;69.70
36372;DHT22;22398;51.346;12.372;2024-03-22T11:21:03;17.60;68.80
36372;DHT22;22398;51.346;12.372;2024-03-22T11:26:08;17.60;69.10
36372;DHT22;22398;51.346;12.372;2024-03-22T11:31:13;17.60;68.80
36372;DHT22;22398;51.346;12.372;2024-03-22T11:36:15;17.70;68.90
36372;DHT22;22398;51.346;12.372;2024-03-22T11:41:19;17.80;68.60
36372;DHT22;22398;51.346;12.372;2024-03-22T11:46:24;18.00;68.50
36372;DHT22;22398;51.346;12.372;2024-03-22T11:51:28;18.20;68.10
36372;DHT22;22398;51.346;12.372;2024-03-22T11:56:30;18.40;68.10
36372;DHT22;22398;51.346;12.372;2024-03-22T12:01:34;18.40;67.50
36372;DHT22;22398;51.346;12.372;2024-03-22T12:06:37;18.20;67.20
36372;DHT22;22398;51.346;12.372;2024-03-22T12:11:39;18.10;67.30
36372;DHT22;22398;51.346;12.372;2024-03-22T12:16:42;18.00;67.30
36372;DHT22;22398;51.346;12.372;2024-03-22T12:21:45;18.10;67.60
36372;DHT22;22398;51.346;12.372;2024-03-22T12:26:47;18.20;67.40
36372;DHT22;22398;51.346;12.372;2024-03-22T12:31:51;18.40;67.50
36372;DHT22;22398;51.346;12.372;2024-03-22T12:36:53;18.50;67.10
36372;DHT22;22398;51.346;12.372;2024-03-22T12:41:55;18.50;67.30
36372;DHT22;22398;51.346;12.372;2024-03-22T12:46:59;18.70;67.00
36372;DHT22;22398;51.346;12.372;2024-03-22T12:52:01;18.50;66.70
36372;DHT22;22398;51.346;12.372;2024-03-22T12:57:04;18.50;66.80
36372;DHT22;22398;51.346;12.372;2024-03-22T13:02:09;18.30;67.00
36372;DHT22;22398;51.346;12.372;2024-03-22T13:07:11;18.20;66.90
36372;DHT22;22398;51.346;12.372;2024-03-22T13:12:14;18.20;67.00
36372;DHT22;22398;51.346;12.372;2024-03-22T13:17:18;17.80;67.10
36372;DHT22;22398;51.346;12.372;2024-03-22T13:22:21;17.90;67.70
36372;DHT22;22398;51.346;12.372;2024-03-22T13:27:23;17.90;67.80
36372;DHT22;22398;51.346;12.372;2024-03-22T13:32:28;18.10;68.20
36372;DHT22;22398;51.346;12.372;2024-03-22T13:37:32;18.10;67.50
36372;DHT22;22398;51.346;12.372;2024-03-22T13:42:34;18.40;67.40
36372;DHT22;22398;51.346;12.372;2024-03-22T13:47:38;18.60;67.00
36372;DHT22;22398;51.346;12.372;2024-03-22T13:52:41;18.50;66.60
36372;DHT22;22398;51.346;12.372;2024-03-22T13:57:43;18.40;66.40
36372;DHT22;22398;51.346;12.372;2024-03-22T14:02:47;18.20;66.10
36372;DHT22;22398;51.346;12.372;2024-03-22T14:07:53;18.10;66.10
36372;DHT22;22398;51.346;12.372;2024-03-22T14:12:55;18.30;66.30
36372;DHT22;22398;51.346;12.372;2024-03-22T14:17:58;18.30;66.00
36372;DHT22;22398;51.346;12.372;2024-03-22T14:23:00;18.20;66.10
36372;DHT22;22398;51.346;12.372;2024-03-22T14:28:05;18.20;66.20
36372;DHT22;22398;51.346;12.372;2024-03-22T14:33:08;18.10;66.20
36372;DHT22;22398;51.346;12.372;2024-03-22T14:38:10;17.90;66.40
36372;DHT22;22398;51.346;12.372;2024-03-22T14:43:12;17.70;66.90
36372;DHT22;22398;51.346;12.372;2024-03-22T14:48:17;17.60;67.10
36372;DHT22;22398;51.346;12.372;2024-03-22T14:53:20;17.40;67.80
36372;DHT22;22398;51.346;12.372;2024-03-22T14:58:23;17.10;68.50
36372;DHT22;22398;51.346;12.372;2024-03-22T15:03:28;17.00;69.00
36372;DHT22;22398;51.346;12.372;2024-03-22T15:08:30;16.90;69.60
36372;DHT22;22398;51.346;12.372;2024-03-22T15:13:33;16.70;70.10
36372;DHT22;22398;51.346;12.372;2024-03-22T15:18:37;16.70;70.70
36372;DHT22;22398;51.346;12.372;2024-03-22T15:23:39;16.70;71.20
36372;DHT22;22398;51.346;12.372;2024-03-22T15:28:41;16.80;71.70
36372;DHT22;22398;51.346;12.372;2024-03-22T15:33:45;16.70;72.20
36372;DHT22;22398;51.346;12.372;2024-03-22T15:38:47;16.70;72.80
36372;DHT22;22398;51.346;12.372;2024-03-22T15:43:50;16.70;73.10
36372;DHT22;22398;51.346;12.372;2024-03-22T15:48:54;16.60;73.40
36372;DHT22;22398;51.346;12.372;2024-03-22T15:53:56;16.50;74.40
36372;DHT22;22398;51.346;12.372;2024-03-22T15:58:58;16.30;74.70
36372;DHT22;22398;51.346;12.372;2024-03-22T16:04:02;16.20;75.10
36372;DHT22;22398;51.346;12.372;2024-03-22T16:09:07;16.00;75.80
36372;DHT22;22398;51.346;12.372;2024-03-22T16:14:11;15.90;76.40
36372;DHT22;22398;51.346;12.372;2024-03-22T16:19:15;15.90;76.80
36372;DHT22;22398;51.346;12.372;2024-03-22T16:24:17;15.70;77.60
36372;DHT22;22398;51.346;12.372;2024-03-22T16:29:20;15.60;78.70
36372;DHT22;22398;51.346;12.372;2024-03-22T16:34:26;15.40;79.60
36372;DHT22;22398;51.346;12.372;2024-03-22T16:39:28;15.20;80.50
36372;DHT22;22398;51.346;12.372;2024-03-22T16:44:31;15.10;81.10
36372;DHT22;22398;51.346;12.372;2024-03-22T16:49:35;14.90;81.70
36372;DHT22;22398;51.346;12.372;2024-03-22T16:54:37;14.80;82.10
36372;DHT22;22398;51.346;12.372;2024-03-22T16:59:40;14.70;83.30
36372;DHT22;22398;51.346;12.372;2024-03-22T17:04:44;14.40;84.90
36372;DHT22;22398;51.346;12.372;2024-03-22T17:09:46;14.20;86.80
36372;DHT22;22398;51.346;12.372;2024-03-22T17:14:48;13.90;89.10
36372;DHT22;22398;51.346;12.372;2024-03-22T17:19:52;13.70;90.80
36372;DHT22;22398;51.346;12.372;2024-03-22T17:24:55;13.50;92.00
36372;DHT22;22398;51.346;12.372;2024-03-22T17:29:57;13.40;93.10
36372;DHT22;22398;51.346;12.372;2024-03-22T17:35:01;13.20;94.20
36372;DHT22;22398;51.346;12.372;2024-03-22T17:40:04;13.20;95.40
36372;DHT22;22398;51.346;12.372;2024-03-22T17:45:06;13.20;96.80
36372;DHT22;22398;51.346;12.372;2024-03-22T17:50:11;13.20;97.90
36372;DHT22;22398;51.346;12.372;2024-03-22T17:55:13;13.10;99.10
36372;DHT22;22398;51.346;12.372;2024-03-22T18:00:16;13.10;99.90
36372;DHT22;22398;51.346;12.372;2024-03-22T18:05:20;13.10;99.90
36372;DHT22;22398;51.346;12.372;2024-03-22T18:10:22;13.00;99.90
36372;DHT22;22398;51.346;12.372;2024-03-22T18:15:25;13.10;99.90
36372;DHT22;22398;51.346;12.372;2024-03-22T18:20:29;13.10;99.90
36372;DHT22;22398;51.346;12.372;2024-03-22T18:25:31;13.10;99.90
36372;DHT22;22398;51.346;12.372;2024-03-22T18:30:33;13.00;99.90
36372;DHT22;22398;51.346;12.372;2024-03-22T18:35:37;13.10;99.90
36372;DHT22;22398;51.346;12.372;2024-03-22T18:40:39;13.20;99.90
36372;DHT22;22398;51.346;12.372;2024-03-22T18:45:41;13.20;99.90
36372;DHT22;22398;51.346;12.372;2024-03-22T18:50:45;13.30;99.90
36372;DHT22;22398;51.346;12.372;2024-03-22T18:55:47;13.40;99.90
36372;DHT22;22398;51.346;12.372;2024-03-22T19:00:51;13.40;99.90
36372;DHT22;22398;51.346;12.372;2024-03-22T19:05:54;13.40;99.90
36372;DHT22;22398;51.346;12.372;2024-03-22T19:10:56;13.40;99.90
36372;DHT22;22398;51.346;12.372;2024-03-22T19:16:00;13.40;99.90
36372;DHT22;22398;51.346;12.372;2024-03-22T19:21:04;13.30;99.90
36372;DHT22;22398;51.346;12.372;2024-03-22T19:26:08;13.40;99.90
36372;DHT22;22398;51.346;12.372;2024-03-22T19:31:10;13.40;99.90
36372;DHT22;22398;51.346;12.372;2024-03-22T19:36:14;13.30;99.90
36372;DHT22;22398;51.346;12.372;2024-03-22T19:41:17;13.10;99.30
36372;DHT22;22398;51.346;12.372;2024-03-22T19:46:19;13.10;99.40
36372;DHT22;22398;51.346;12.372;2024-03-22T19:51:25;12.90;99.10
36372;DHT22;22398;51.346;12.372;2024-03-22T19:56:28;12.80;98.90
36372;DHT22;22398;51.346;12.372;2024-03-22T20:01:30;12.70;98.70
36372;DHT22;22398;51.346;12.372;2024-03-22T20:06:34;12.60;98.60
36372;DHT22;22398;51.346;12.372;2024-03-22T20:11:36;12.60;98.40
36372;DHT22;22398;51.346;12.372;2024-03-22T20:16:39;12.60;98.20
36372;DHT22;22398;51.346;12.372;2024-03-22T20:21:42;12.50;98.30
36372;DHT22;22398;51.346;12.372;2024-03-22T20:26:44;12.50;98.20
36372;DHT22;22398;51.346;12.372;2024-03-22T20:36:51;12.40;97.90
